createdAt,value
2022-12-03T00:01:38.974Z,91.47
2022-12-03T00:04:07.960Z,91.18
2022-12-03T00:06:36.016Z,91.73
2022-12-03T00:09:04.985Z,90.79
2022-12-03T00:11:33.017Z,90.80
2022-12-03T00:14:00.939Z,91.19
2022-12-03T00:16:28.818Z,91.04
2022-12-03T00:18:56.857Z,90.89
2022-12-03T00:21:25.090Z,91.26
2022-12-03T00:23:53.047Z,91.14
2022-12-03T00:26:21.245Z,91.70
2022-12-03T00:28:49.762Z,90.64
2022-12-03T00:31:18.759Z,90.75
2022-12-03T00:33:46.663Z,90.41
2022-12-03T00:36:14.564Z,90.84
2022-12-03T00:38:42.530Z,90.67
2022-12-03T00:41:10.561Z,90.80
2022-12-03T00:43:38.461Z,90.85
2022-12-03T00:46:06.557Z,91.08
2022-12-03T00:48:37.134Z,91.43
2022-12-03T00:51:05.262Z,91.28
2022-12-03T00:53:33.337Z,90.56
2022-12-03T00:56:01.857Z,89.91
2022-12-03T00:58:29.789Z,90.14
2022-12-03T01:00:58.209Z,90.10
2022-12-03T01:03:26.383Z,90.17
2022-12-03T01:05:54.325Z,90.51
2022-12-03T01:08:22.255Z,90.02
2022-12-03T01:10:50.479Z,89.98
2022-12-03T01:13:18.423Z,90.05
2022-12-03T01:15:46.369Z,90.21
2022-12-03T01:18:14.432Z,89.37
2022-12-03T01:20:42.409Z,89.10
2022-12-03T01:23:10.332Z,89.92
2022-12-03T01:25:38.301Z,90.12
2022-12-03T01:28:06.184Z,90.14
2022-12-03T01:30:54.571Z,88.86
2022-12-03T01:33:22.515Z,88.64
2022-12-03T01:35:50.429Z,88.55
2022-12-03T01:38:18.354Z,88.39
2022-12-03T01:40:46.346Z,88.46
2022-12-03T01:43:14.265Z,88.86
2022-12-03T01:45:42.267Z,88.74
2022-12-03T01:48:16.918Z,88.84
2022-12-03T01:50:45.567Z,88.89
2022-12-03T01:53:16.912Z,88.83
2022-12-03T01:55:48.752Z,88.85
2022-12-03T01:58:19.959Z,89.06
2022-12-03T02:00:47.923Z,89.10
2022-12-03T02:03:21.346Z,88.55
2022-12-03T02:05:49.786Z,90.18
2022-12-03T02:08:31.937Z,89.59
2022-12-03T02:11:07.979Z,89.21
2022-12-03T02:13:36.693Z,88.92
2022-12-03T02:16:05.022Z,89.59
2022-12-03T02:18:32.957Z,89.32
2022-12-03T02:21:25.144Z,89.64
2022-12-03T02:24:00.744Z,90.18
2022-12-03T02:26:30.026Z,89.83
2022-12-03T02:28:58.242Z,89.46
2022-12-03T02:31:26.407Z,88.94
2022-12-03T02:33:54.532Z,89.39
2022-12-03T02:36:22.765Z,89.67
2022-12-03T02:38:51.335Z,89.71
2022-12-03T02:41:40.077Z,90.27
2022-12-03T02:44:09.237Z,90.89
2022-12-03T02:46:37.443Z,90.85
2022-12-03T02:49:06.743Z,90.68
2022-12-03T02:51:35.342Z,90.43
2022-12-03T02:54:03.916Z,90.97
2022-12-03T02:56:33.210Z,90.58
2022-12-03T02:59:03.511Z,90.19
2022-12-03T03:01:31.654Z,90.44
2022-12-03T03:03:59.693Z,91.25
2022-12-03T03:06:27.621Z,91.25
2022-12-03T03:08:55.813Z,90.68
2022-12-03T03:11:24.616Z,90.76
2022-12-03T03:13:52.551Z,90.36
2022-12-03T03:16:20.693Z,90.21
2022-12-03T03:18:49.404Z,90.74
2022-12-03T03:21:17.228Z,89.81
2022-12-03T03:23:45.176Z,89.91
2022-12-03T03:26:14.550Z,90.32
2022-12-03T03:28:51.946Z,89.71
2022-12-03T03:31:23.306Z,89.69
2022-12-03T03:33:51.975Z,90.19
2022-12-03T03:36:20.447Z,89.35
2022-12-03T03:38:49.163Z,89.70
2022-12-03T03:41:17.822Z,90.52
2022-12-03T03:43:48.368Z,90.15
2022-12-03T03:46:17.706Z,90.20
2022-12-03T03:48:45.915Z,90.70
2022-12-03T03:51:14.798Z,90.45
2022-12-03T03:53:48.080Z,89.96
2022-12-03T03:56:20.751Z,91.52
2022-12-03T03:58:48.837Z,91.16
2022-12-03T04:01:18.178Z,91.00
2022-12-03T04:03:46.296Z,91.47
2022-12-03T04:06:14.179Z,91.32
2022-12-03T04:08:42.364Z,91.54
2022-12-03T04:11:28.913Z,92.41
2022-12-03T04:13:56.868Z,91.75
2022-12-03T04:16:24.889Z,92.53
2022-12-03T04:18:52.952Z,91.77
2022-12-03T04:21:42.178Z,92.89
2022-12-03T04:24:12.067Z,93.02
2022-12-03T04:26:58.590Z,93.27
2022-12-03T04:29:26.704Z,93.25
2022-12-03T04:32:13.171Z,94.15
2022-12-03T04:34:59.440Z,93.99
2022-12-03T04:37:27.828Z,93.96
2022-12-03T04:39:55.790Z,93.65
2022-12-03T04:42:23.780Z,93.62
2022-12-03T04:44:52.305Z,93.59
2022-12-03T04:47:22.285Z,93.14
2022-12-03T04:49:51.749Z,93.58
2022-12-03T04:52:20.995Z,93.90
2022-12-03T04:54:49.034Z,94.20
2022-12-03T04:57:17.088Z,94.25
2022-12-03T04:59:45.078Z,94.62
2022-12-03T05:02:13.025Z,94.93
2022-12-03T05:04:41.005Z,95.15
2022-12-03T05:07:08.942Z,96.38
2022-12-03T05:09:36.894Z,96.40
2022-12-03T05:12:05.079Z,96.11
2022-12-03T05:14:32.971Z,95.20
2022-12-03T05:17:01.143Z,95.70
2022-12-03T05:19:47.840Z,96.52
2022-12-03T05:22:15.902Z,96.85
2022-12-03T05:24:43.838Z,95.14
2022-12-03T05:27:11.672Z,95.67
2022-12-03T05:29:39.606Z,96.24
2022-12-03T05:32:07.510Z,96.47
2022-12-03T05:34:35.402Z,96.78
2022-12-03T05:37:03.527Z,97.26
2022-12-03T05:39:31.546Z,97.22
2022-12-03T05:42:17.826Z,96.97
2022-12-03T05:44:45.750Z,97.20
2022-12-03T05:47:13.679Z,97.07
2022-12-03T05:49:41.653Z,98.05
2022-12-03T05:52:09.582Z,97.63
2022-12-03T05:54:37.440Z,97.59
2022-12-03T05:57:05.974Z,98.67
2022-12-03T05:59:34.532Z,98.20
2022-12-03T06:02:02.818Z,96.83
2022-12-03T06:04:30.843Z,96.70
2022-12-03T06:06:59.111Z,95.72
2022-12-03T06:09:27.059Z,94.86
2022-12-03T06:11:54.996Z,94.22
2022-12-03T06:14:23.031Z,93.86
2022-12-03T06:16:50.992Z,94.46
2022-12-03T06:19:18.944Z,95.50
2022-12-03T06:21:46.823Z,95.54
2022-12-03T06:24:14.832Z,95.97
2022-12-03T06:26:42.796Z,94.66
2022-12-03T06:29:10.730Z,95.04
2022-12-03T06:31:38.657Z,94.00
2022-12-03T06:34:06.645Z,94.73
2022-12-03T06:36:34.558Z,94.25
2022-12-03T06:39:02.488Z,94.82
2022-12-03T06:41:30.638Z,94.74
2022-12-03T06:43:58.584Z,93.96
2022-12-03T06:46:26.540Z,94.84
2022-12-03T06:48:54.618Z,93.98
2022-12-03T06:51:22.603Z,93.32
2022-12-03T06:53:50.445Z,93.50
2022-12-03T06:56:22.041Z,93.65
2022-12-03T06:58:50.304Z,93.01
2022-12-03T07:01:18.409Z,93.14
2022-12-03T07:03:46.800Z,93.13
2022-12-03T07:06:14.814Z,92.92
2022-12-03T07:08:42.787Z,93.92
2022-12-03T07:11:30.636Z,93.44
2022-12-03T07:14:05.179Z,93.34
2022-12-03T07:16:35.625Z,93.36
2022-12-03T07:19:05.425Z,93.11
2022-12-03T07:21:33.648Z,91.67
2022-12-03T07:24:01.784Z,92.03
2022-12-03T07:26:30.033Z,90.37
2022-12-03T07:28:58.225Z,91.09
2022-12-03T07:31:26.241Z,89.69
2022-12-03T07:33:54.313Z,89.49
2022-12-03T07:36:22.293Z,90.02
2022-12-03T07:38:50.271Z,89.50
2022-12-03T07:41:18.240Z,89.43
2022-12-03T07:43:46.303Z,88.96
2022-12-03T07:46:14.245Z,89.10
2022-12-03T07:48:42.132Z,89.72
2022-12-03T07:51:15.207Z,88.05
2022-12-03T07:53:43.603Z,88.01
2022-12-03T07:56:11.570Z,87.61
2022-12-03T07:58:40.214Z,87.79
2022-12-03T08:01:08.600Z,86.54
2022-12-03T08:03:36.627Z,86.12
2022-12-03T08:06:05.274Z,85.48
2022-12-03T08:08:33.174Z,86.07
2022-12-03T08:11:02.298Z,85.99
2022-12-03T08:13:30.392Z,85.36
2022-12-03T08:16:02.136Z,85.02
2022-12-03T08:18:30.150Z,85.10
2022-12-03T08:20:58.433Z,84.67
2022-12-03T08:23:26.505Z,84.62
2022-12-03T08:25:54.490Z,83.44
2022-12-03T08:28:26.917Z,83.27
2022-12-03T08:31:02.773Z,83.81
2022-12-03T08:33:35.935Z,83.79
2022-12-03T08:36:14.940Z,82.24
2022-12-03T08:38:48.399Z,81.12
2022-12-03T08:41:36.860Z,80.83
2022-12-03T08:44:38.993Z,81.37
2022-12-03T08:47:11.155Z,79.28
2022-12-03T08:49:40.615Z,79.02
2022-12-03T08:52:16.609Z,79.66
2022-12-03T08:54:51.823Z,78.21
2022-12-03T08:57:28.067Z,76.65
2022-12-03T09:00:21.274Z,77.08
2022-12-03T09:02:54.858Z,77.40
2022-12-03T09:05:27.505Z,73.88
2022-12-03T09:07:55.488Z,74.58
2022-12-03T09:10:23.401Z,73.88
2022-12-03T09:12:51.489Z,72.52
2022-12-03T09:15:19.322Z,72.31
2022-12-03T09:17:47.389Z,70.86
2022-12-03T09:20:15.401Z,71.83
2022-12-03T09:22:43.246Z,72.43
2022-12-03T09:25:11.284Z,72.61
2022-12-03T09:27:39.166Z,71.88
2022-12-03T09:30:07.599Z,71.67
2022-12-03T09:32:35.482Z,71.00
2022-12-03T09:35:03.713Z,70.89
2022-12-03T09:37:31.615Z,70.42
2022-12-03T09:39:59.615Z,70.57
2022-12-03T09:42:27.689Z,70.61
2022-12-03T09:44:56.068Z,69.50
2022-12-03T09:47:25.360Z,70.90
2022-12-03T09:49:53.862Z,71.29
2022-12-03T09:52:27.591Z,69.98
2022-12-03T09:55:05.674Z,71.27
2022-12-03T09:57:33.619Z,69.95
2022-12-03T10:00:01.786Z,70.42
2022-12-03T10:02:31.320Z,70.47
2022-12-03T10:04:59.369Z,69.91
2022-12-03T10:07:27.489Z,70.30
2022-12-03T10:09:55.774Z,72.07
2022-12-03T10:12:25.179Z,70.64
2022-12-03T10:14:54.396Z,72.44
2022-12-03T10:17:22.432Z,71.98
2022-12-03T10:19:50.786Z,70.69
2022-12-03T10:22:18.951Z,70.55
2022-12-03T10:25:03.924Z,70.77
2022-12-03T10:27:32.901Z,70.62
2022-12-03T10:30:03.529Z,71.58
2022-12-03T10:32:45.981Z,70.59
2022-12-03T10:35:20.970Z,69.54
2022-12-03T10:37:55.018Z,69.71
2022-12-03T10:40:46.094Z,69.40
2022-12-03T10:43:20.089Z,68.50
2022-12-03T10:46:03.344Z,69.36
2022-12-03T10:48:32.259Z,68.96
2022-12-03T10:51:13.730Z,67.51
2022-12-03T10:53:42.265Z,65.68
2022-12-03T10:56:29.050Z,65.82
2022-12-03T10:59:01.901Z,65.68
2022-12-03T11:01:31.932Z,66.86
2022-12-03T11:04:09.047Z,66.33
2022-12-03T11:06:38.191Z,67.15
2022-12-03T11:09:18.817Z,68.36
2022-12-03T11:11:47.717Z,69.43
2022-12-03T11:14:57.042Z,71.03
2022-12-03T11:17:48.419Z,71.64
2022-12-03T11:20:26.237Z,69.50
2022-12-03T11:22:59.942Z,71.62
2022-12-03T11:25:33.679Z,71.53
2022-12-03T11:28:13.411Z,70.07
2022-12-03T11:30:51.186Z,69.37
2022-12-03T11:33:34.347Z,68.19
2022-12-03T11:36:03.977Z,69.36
2022-12-03T11:38:38.524Z,69.09
2022-12-03T11:41:07.458Z,69.96
2022-12-03T11:44:20.345Z,71.00
2022-12-03T11:46:49.826Z,68.17
2022-12-03T11:49:34.198Z,67.65
2022-12-03T11:52:18.130Z,68.19
2022-12-03T11:54:56.801Z,66.93
2022-12-03T11:57:39.942Z,66.89
2022-12-03T12:00:21.421Z,66.06
2022-12-03T12:02:52.122Z,66.51
2022-12-03T12:05:25.110Z,65.94
2022-12-03T12:07:54.491Z,64.88
2022-12-03T12:10:46.220Z,65.13
2022-12-03T12:13:33.965Z,65.31
2022-12-03T12:16:05.319Z,64.69
2022-12-03T12:18:42.609Z,64.84
2022-12-03T12:21:47.949Z,66.53
2022-12-03T12:24:47.794Z,67.08
2022-12-03T12:27:23.989Z,66.60
2022-12-03T12:29:59.397Z,66.77
2022-12-03T12:32:55.637Z,66.99
2022-12-03T12:35:26.465Z,67.78
2022-12-03T12:38:00.508Z,70.06
2022-12-03T12:40:32.042Z,71.82
2022-12-03T12:43:11.811Z,73.48
2022-12-03T12:45:43.590Z,73.37
2022-12-03T12:48:23.746Z,76.24
2022-12-03T12:51:01.128Z,75.38
2022-12-03T12:53:41.388Z,76.67
2022-12-03T12:56:19.466Z,78.49
2022-12-03T12:58:49.257Z,78.89
2022-12-03T13:01:22.670Z,79.54
2022-12-03T13:03:52.617Z,78.72
2022-12-03T13:06:33.372Z,79.21
2022-12-03T13:09:02.960Z,79.72
2022-12-03T13:11:42.600Z,80.28
2022-12-03T13:14:22.716Z,79.67
2022-12-03T13:16:54.632Z,78.71
2022-12-03T13:19:39.612Z,79.06
2022-12-03T13:22:20.652Z,78.72
2022-12-03T13:24:54.523Z,78.60
2022-12-03T13:27:29.865Z,79.37
2022-12-03T13:30:16.192Z,78.12
2022-12-03T13:32:44.630Z,77.88
2022-12-03T13:35:27.117Z,77.83
2022-12-03T13:37:55.052Z,77.84
2022-12-03T13:40:41.557Z,76.49
2022-12-03T13:43:18.939Z,76.21
2022-12-03T13:45:54.484Z,76.67
2022-12-03T13:48:25.348Z,76.98
2022-12-03T13:50:56.407Z,77.13
2022-12-03T13:53:26.719Z,75.61
2022-12-03T13:56:19.705Z,76.23
2022-12-03T13:58:47.581Z,76.56
2022-12-03T14:01:15.508Z,76.66
2022-12-03T14:03:44.785Z,75.54
2022-12-03T14:06:12.613Z,76.64
2022-12-03T14:08:40.619Z,76.45
2022-12-03T14:11:08.864Z,76.77
2022-12-03T14:13:38.391Z,76.84
2022-12-03T14:16:07.950Z,76.12
2022-12-03T14:18:35.886Z,76.08
2022-12-03T14:21:03.858Z,75.98
2022-12-03T14:23:31.704Z,76.61
2022-12-03T14:25:59.585Z,76.20
2022-12-03T14:28:27.732Z,76.20
2022-12-03T14:30:55.707Z,79.43
2022-12-03T14:33:23.878Z,81.75
2022-12-03T14:35:54.465Z,81.53
2022-12-03T14:38:22.421Z,82.63
2022-12-03T14:40:50.352Z,81.59
2022-12-03T14:43:18.200Z,84.78
2022-12-03T14:45:46.315Z,85.84
2022-12-03T14:48:14.294Z,86.88
2022-12-03T14:50:42.239Z,86.51
2022-12-03T14:53:10.209Z,87.07
2022-12-03T14:55:38.533Z,87.40
2022-12-03T14:58:06.570Z,86.75
2022-12-03T15:00:34.493Z,87.40
2022-12-03T15:03:02.377Z,88.79
2022-12-03T15:05:30.382Z,89.19
2022-12-03T15:07:58.242Z,90.65
2022-12-03T15:10:26.085Z,90.11
2022-12-03T15:12:53.925Z,90.36
2022-12-03T15:15:24.098Z,86.64
2022-12-03T15:17:51.955Z,80.96
2022-12-03T15:20:19.946Z,80.23
2022-12-03T15:22:47.873Z,80.03
2022-12-03T15:25:16.216Z,79.62
2022-12-03T15:27:44.253Z,77.61
2022-12-03T15:30:12.289Z,78.79
2022-12-03T15:32:40.759Z,79.05
2022-12-03T15:35:09.038Z,78.34
2022-12-03T15:37:37.011Z,78.50
2022-12-03T15:40:05.877Z,79.52
2022-12-03T15:42:33.754Z,79.38
2022-12-03T15:45:01.804Z,78.30
2022-12-03T15:47:31.075Z,79.01
2022-12-03T15:49:59.257Z,79.90
2022-12-03T15:52:27.096Z,79.76
2022-12-03T15:54:55.448Z,79.23
2022-12-03T15:57:23.870Z,78.93
2022-12-03T15:59:52.187Z,79.56
2022-12-03T16:02:20.568Z,79.96
2022-12-03T16:04:48.626Z,79.31
2022-12-03T16:07:16.627Z,79.65
2022-12-03T16:09:44.518Z,79.36
2022-12-03T16:12:12.390Z,79.33
2022-12-03T16:14:40.214Z,79.45
2022-12-03T16:17:08.306Z,78.98
2022-12-03T16:19:36.678Z,78.80
2022-12-03T16:22:04.548Z,78.85
2022-12-03T16:24:32.470Z,79.23
2022-12-03T16:27:00.507Z,80.27
2022-12-03T16:29:28.361Z,80.17
2022-12-03T16:31:56.465Z,79.79
2022-12-03T16:34:24.415Z,79.36
2022-12-03T16:36:52.412Z,80.57
2022-12-03T16:39:20.309Z,80.93
2022-12-03T16:41:48.178Z,79.92
2022-12-03T16:44:42.188Z,79.59
2022-12-03T16:47:10.058Z,79.81
2022-12-03T16:49:38.039Z,79.28
2022-12-03T16:52:06.022Z,79.87
2022-12-03T16:54:33.888Z,79.80
2022-12-03T16:57:01.703Z,80.13
2022-12-03T16:59:29.630Z,80.26
2022-12-03T17:01:57.631Z,80.98
2022-12-03T17:04:25.557Z,80.64
2022-12-03T17:06:53.425Z,81.83
2022-12-03T17:09:21.415Z,82.44
2022-12-03T17:11:49.269Z,82.41
2022-12-03T17:14:17.159Z,83.69
2022-12-03T17:16:45.119Z,84.34
2022-12-03T17:19:13.351Z,84.03
2022-12-03T17:21:42.102Z,85.38
2022-12-03T17:24:10.006Z,87.23
2022-12-03T17:26:39.546Z,88.76
2022-12-03T17:29:08.275Z,90.61
2022-12-03T17:31:43.871Z,91.75
2022-12-03T17:34:19.895Z,93.58
2022-12-03T17:36:50.049Z,93.53
2022-12-03T17:39:21.948Z,93.63
2022-12-03T17:41:51.954Z,93.22
2022-12-03T17:44:22.236Z,93.89
2022-12-03T17:46:52.225Z,94.32
2022-12-03T17:49:25.639Z,94.68
2022-12-03T17:51:59.490Z,94.95
2022-12-03T17:54:49.134Z,95.31
2022-12-03T17:57:28.864Z,95.45
2022-12-03T17:59:57.705Z,95.60
2022-12-03T18:02:26.683Z,96.67
2022-12-03T18:04:57.795Z,96.99
2022-12-03T18:07:40.784Z,97.35
2022-12-03T18:10:19.765Z,96.03
2022-12-03T18:13:01.716Z,96.91
2022-12-03T18:15:34.405Z,96.18
2022-12-03T18:18:04.021Z,97.08
2022-12-03T18:20:35.253Z,98.15
2022-12-03T18:23:04.975Z,96.93
2022-12-03T18:25:34.247Z,96.22
2022-12-03T18:28:04.182Z,95.85
2022-12-03T18:30:37.926Z,95.97
2022-12-03T18:33:09.499Z,96.16
2022-12-03T18:35:45.162Z,97.35
2022-12-03T18:38:21.844Z,95.65
2022-12-03T18:40:59.543Z,96.40
2022-12-03T18:43:32.964Z,97.05
2022-12-03T18:46:07.744Z,97.28
2022-12-03T18:49:00.743Z,97.41
2022-12-03T18:51:34.476Z,97.56
2022-12-03T18:54:48.164Z,97.11
2022-12-03T18:57:18.778Z,97.92
2022-12-03T18:59:53.655Z,97.28
2022-12-03T19:03:01.763Z,97.85
2022-12-03T19:05:20.043Z,97.24
2022-12-03T19:07:55.385Z,96.68
2022-12-03T19:10:24.857Z,97.20
2022-12-03T19:12:52.758Z,96.87
2022-12-03T19:15:21.459Z,97.79
2022-12-03T19:17:50.223Z,97.47
2022-12-03T19:20:19.798Z,98.05
2022-12-03T19:22:52.785Z,98.56
2022-12-03T19:25:20.946Z,98.33
2022-12-03T19:27:55.805Z,98.27
2022-12-03T19:30:31.027Z,98.55
2022-12-03T19:33:07.306Z,98.86
2022-12-03T19:35:51.236Z,98.85
2022-12-03T19:38:35.476Z,99.36
2022-12-03T19:41:23.001Z,99.02
2022-12-03T19:44:09.275Z,99.44
2022-12-03T19:46:49.057Z,100.00
2022-12-03T19:49:32.144Z,99.33
2022-12-03T19:52:00.920Z,99.21
2022-12-03T19:54:28.966Z,99.06
2022-12-03T19:56:57.123Z,98.44
2022-12-03T19:59:25.426Z,99.23
2022-12-03T20:01:53.703Z,99.19
2022-12-03T20:04:21.636Z,100.00
2022-12-03T20:06:49.583Z,100.00
2022-12-03T20:09:24.594Z,100.00
2022-12-03T20:11:58.906Z,100.00
2022-12-03T20:14:26.771Z,100.00
2022-12-03T20:16:55.713Z,100.00
2022-12-03T20:19:24.088Z,100.00
2022-12-03T20:21:51.997Z,100.00
2022-12-03T20:24:19.935Z,100.00
2022-12-03T20:26:47.767Z,100.00
2022-12-03T20:29:16.003Z,100.00
2022-12-03T20:31:44.472Z,100.00
2022-12-03T20:34:12.754Z,100.00
2022-12-03T20:36:43.228Z,99.68
2022-12-03T20:39:12.583Z,100.00
2022-12-03T20:41:40.589Z,99.86
2022-12-03T20:44:08.593Z,99.04
2022-12-03T20:46:39.978Z,99.27
2022-12-03T20:49:10.736Z,99.41
2022-12-03T20:51:44.515Z,99.91
2022-12-03T20:54:25.424Z,100.00
2022-12-03T20:57:17.200Z,99.81
2022-12-03T20:59:50.980Z,99.53
2022-12-03T21:02:19.177Z,100.00
2022-12-03T21:04:47.342Z,100.00
2022-12-03T21:07:15.182Z,100.00
2022-12-03T21:09:43.076Z,100.00
2022-12-03T21:12:11.116Z,99.87
2022-12-03T21:14:40.295Z,100.00
2022-12-03T21:17:09.601Z,99.49
2022-12-03T21:19:38.256Z,99.49
2022-12-03T21:22:07.589Z,99.07
2022-12-03T21:24:35.805Z,99.10
2022-12-03T21:27:05.334Z,98.50
2022-12-03T21:29:33.250Z,97.42
2022-12-03T21:32:04.514Z,96.94
2022-12-03T21:34:36.405Z,96.17
2022-12-03T21:37:04.772Z,96.43
2022-12-03T21:39:32.790Z,95.96
2022-12-03T21:42:19.370Z,95.70
2022-12-03T21:44:48.734Z,95.56
2022-12-03T21:47:17.096Z,95.97
2022-12-03T21:49:45.045Z,94.89
2022-12-03T21:52:12.877Z,94.50
2022-12-03T21:54:40.771Z,94.97
2022-12-03T21:57:08.621Z,94.87
2022-12-03T21:59:36.709Z,94.32
2022-12-03T22:02:04.916Z,94.37
2022-12-03T22:04:33.003Z,93.79
2022-12-03T22:07:00.893Z,94.34
2022-12-03T22:09:28.931Z,94.73
2022-12-03T22:11:59.382Z,94.62
2022-12-03T22:14:28.185Z,95.06
2022-12-03T22:16:56.430Z,94.13
2022-12-03T22:19:25.693Z,94.86
2022-12-03T22:21:53.507Z,94.62
2022-12-03T22:24:21.631Z,93.86
2022-12-03T22:26:49.645Z,94.15
2022-12-03T22:29:17.484Z,94.35
2022-12-03T22:31:45.371Z,94.14
2022-12-03T22:34:13.349Z,95.74
2022-12-03T22:36:41.307Z,95.27
2022-12-03T22:39:09.206Z,95.50
2022-12-03T22:41:37.097Z,95.68
2022-12-03T22:44:05.230Z,95.68
2022-12-03T22:46:33.407Z,95.84
2022-12-03T22:49:06.661Z,94.18
2022-12-03T22:51:35.771Z,94.42
2022-12-03T22:54:04.209Z,94.75
2022-12-03T22:56:32.819Z,94.44
2022-12-03T22:59:01.057Z,95.28
2022-12-03T23:01:30.826Z,95.58
2022-12-03T23:03:59.573Z,95.97
2022-12-03T23:06:28.806Z,96.54
2022-12-03T23:08:58.351Z,95.87
2022-12-03T23:11:27.073Z,96.45
2022-12-03T23:13:55.161Z,96.46
2022-12-03T23:16:26.356Z,95.84
2022-12-03T23:18:54.864Z,94.80
2022-12-03T23:21:29.517Z,94.08
2022-12-03T23:24:03.535Z,94.13
2022-12-03T23:26:34.982Z,93.65
2022-12-03T23:29:03.068Z,93.76
2022-12-03T23:31:32.790Z,93.75
2022-12-03T23:34:01.185Z,93.63
2022-12-03T23:36:32.396Z,93.09
2022-12-03T23:39:00.659Z,93.42
2022-12-03T23:41:28.812Z,93.87
2022-12-03T23:43:57.175Z,93.78
2022-12-03T23:46:27.670Z,94.24
2022-12-03T23:48:56.333Z,95.14
2022-12-03T23:51:25.591Z,95.51
2022-12-03T23:53:54.989Z,95.23
2022-12-03T23:56:25.696Z,94.59
2022-12-03T23:58:53.864Z,95.33
